sensor_id;sensor_type;location;lat;lon;timestamp;P1;durP1;ratioP1;P2;durP2;ratioP2
48975;SDS011;34791;52.752;8.346;2023-02-01T00:01:20;23.97;;;3.43;;
48975;SDS011;34791;52.752;8.346;2023-02-01T00:03:46;16.17;;;2.47;;
48975;SDS011;34791;52.752;8.346;2023-02-01T00:06:11;19.07;;;3.27;;
48975;SDS011;34791;52.752;8.346;2023-02-01T00:08:36;17.70;;;3.00;;
48975;SDS011;34791;52.752;8.346;2023-02-01T00:11:03;21.13;;;2.57;;
48975;SDS011;34791;52.752;8.346;2023-02-01T00:13:31;17.60;;;2.97;;
48975;SDS011;34791;52.752;8.346;2023-02-01T00:18:32;12.87;;;2.40;;
48975;SDS011;34791;52.752;8.346;2023-02-01T00:20:57;15.73;;;2.90;;
48975;SDS011;34791;52.752;8.346;2023-02-01T00:23:23;11.93;;;2.43;;
48975;SDS011;34791;52.752;8.346;2023-02-01T00:25:49;18.37;;;3.10;;
48975;SDS011;34791;52.752;8.346;2023-02-01T00:28:14;12.53;;;2.63;;
48975;SDS011;34791;52.752;8.346;2023-02-01T00:30:40;17.60;;;2.70;;
48975;SDS011;34791;52.752;8.346;2023-02-01T00:33:05;13.50;;;1.87;;
48975;SDS011;34791;52.752;8.346;2023-02-01T00:35:31;15.30;;;2.30;;
48975;SDS011;34791;52.752;8.346;2023-02-01T00:37:58;14.07;;;2.83;;
48975;SDS011;34791;52.752;8.346;2023-02-01T00:40:25;17.67;;;2.43;;
48975;SDS011;34791;52.752;8.346;2023-02-01T00:42:51;13.07;;;2.07;;
48975;SDS011;34791;52.752;8.346;2023-02-01T00:45:17;18.47;;;2.63;;
48975;SDS011;34791;52.752;8.346;2023-02-01T00:47:43;21.80;;;3.03;;
48975;SDS011;34791;52.752;8.346;2023-02-01T00:50:08;18.33;;;3.00;;
48975;SDS011;34791;52.752;8.346;2023-02-01T00:52:35;18.90;;;2.70;;
48975;SDS011;34791;52.752;8.346;2023-02-01T00:55:01;11.47;;;2.37;;
48975;SDS011;34791;52.752;8.346;2023-02-01T00:57:26;14.33;;;2.63;;
48975;SDS011;34791;52.752;8.346;2023-02-01T00:59:52;23.63;;;2.80;;
48975;SDS011;34791;52.752;8.346;2023-02-01T01:02:17;22.20;;;3.07;;
48975;SDS011;34791;52.752;8.346;2023-02-01T01:04:43;12.53;;;2.30;;
48975;SDS011;34791;52.752;8.346;2023-02-01T01:07:08;19.00;;;2.77;;
48975;SDS011;34791;52.752;8.346;2023-02-01T01:09:33;26.27;;;2.60;;
48975;SDS011;34791;52.752;8.346;2023-02-01T01:11:59;17.20;;;3.30;;
48975;SDS011;34791;52.752;8.346;2023-02-01T01:14:30;17.67;;;2.43;;
48975;SDS011;34791;52.752;8.346;2023-02-01T01:16:57;23.77;;;3.80;;
48975;SDS011;34791;52.752;8.346;2023-02-01T01:19:23;21.23;;;2.87;;
48975;SDS011;34791;52.752;8.346;2023-02-01T01:21:49;9.20;;;1.77;;
48975;SDS011;34791;52.752;8.346;2023-02-01T01:24:15;22.07;;;3.17;;
48975;SDS011;34791;52.752;8.346;2023-02-01T01:26:40;14.87;;;2.20;;
48975;SDS011;34791;52.752;8.346;2023-02-01T01:29:08;10.63;;;2.10;;
48975;SDS011;34791;52.752;8.346;2023-02-01T01:31:34;12.37;;;2.20;;
48975;SDS011;34791;52.752;8.346;2023-02-01T01:34:01;17.07;;;2.73;;
48975;SDS011;34791;52.752;8.346;2023-02-01T01:36:27;13.20;;;3.00;;
48975;SDS011;34791;52.752;8.346;2023-02-01T01:38:53;22.73;;;3.53;;
48975;SDS011;34791;52.752;8.346;2023-02-01T01:41:25;18.63;;;2.70;;
48975;SDS011;34791;52.752;8.346;2023-02-01T01:46:36;19.33;;;3.50;;
48975;SDS011;34791;52.752;8.346;2023-02-01T01:51:59;13.10;;;1.70;;
48975;SDS011;34791;52.752;8.346;2023-02-01T01:54:31;12.87;;;2.77;;
48975;SDS011;34791;52.752;8.346;2023-02-01T01:57:04;11.37;;;1.90;;
48975;SDS011;34791;52.752;8.346;2023-02-01T01:59:53;20.97;;;3.00;;
48975;SDS011;34791;52.752;8.346;2023-02-01T02:02:30;18.50;;;3.03;;
48975;SDS011;34791;52.752;8.346;2023-02-01T02:04:57;9.03;;;2.13;;
48975;SDS011;34791;52.752;8.346;2023-02-01T02:07:30;18.37;;;2.50;;
48975;SDS011;34791;52.752;8.346;2023-02-01T02:09:59;20.10;;;2.30;;
48975;SDS011;34791;52.752;8.346;2023-02-01T02:12:31;18.27;;;4.03;;
48975;SDS011;34791;52.752;8.346;2023-02-01T02:14:57;25.13;;;3.73;;
48975;SDS011;34791;52.752;8.346;2023-02-01T02:28:59;14.17;;;2.87;;
48975;SDS011;34791;52.752;8.346;2023-02-01T02:34:58;19.77;;;3.08;;
48975;SDS011;34791;52.752;8.346;2023-02-01T02:37:38;13.70;;;1.83;;
48975;SDS011;34791;52.752;8.346;2023-02-01T02:40:32;14.47;;;2.90;;
48975;SDS011;34791;52.752;8.346;2023-02-01T02:51:43;18.83;;;3.23;;
48975;SDS011;34791;52.752;8.346;2023-02-01T02:54:37;11.30;;;2.00;;
48975;SDS011;34791;52.752;8.346;2023-02-01T02:57:57;17.83;;;2.93;;
48975;SDS011;34791;52.752;8.346;2023-02-01T03:00:24;18.93;;;2.50;;
48975;SDS011;34791;52.752;8.346;2023-02-01T03:03:14;13.10;;;2.60;;
48975;SDS011;34791;52.752;8.346;2023-02-01T03:05:59;13.70;;;2.87;;
48975;SDS011;34791;52.752;8.346;2023-02-01T03:08:26;16.37;;;2.67;;
48975;SDS011;34791;52.752;8.346;2023-02-01T03:11:01;20.43;;;3.07;;
48975;SDS011;34791;52.752;8.346;2023-02-01T03:16:19;20.17;;;3.60;;
48975;SDS011;34791;52.752;8.346;2023-02-01T03:21:29;13.27;;;2.40;;
48975;SDS011;34791;52.752;8.346;2023-02-01T03:24:02;18.83;;;3.00;;
48975;SDS011;34791;52.752;8.346;2023-02-01T03:26:36;13.90;;;2.93;;
48975;SDS011;34791;52.752;8.346;2023-02-01T03:29:11;19.27;;;3.03;;
48975;SDS011;34791;52.752;8.346;2023-02-01T03:31:42;19.30;;;3.73;;
48975;SDS011;34791;52.752;8.346;2023-02-01T03:34:10;18.07;;;2.73;;
48975;SDS011;34791;52.752;8.346;2023-02-01T03:36:39;22.90;;;4.20;;
48975;SDS011;34791;52.752;8.346;2023-02-01T03:39:20;24.03;;;4.13;;
48975;SDS011;34791;52.752;8.346;2023-02-01T03:41:49;21.97;;;3.53;;
48975;SDS011;34791;52.752;8.346;2023-02-01T03:49:22;22.33;;;3.57;;
48975;SDS011;34791;52.752;8.346;2023-02-01T03:51:52;23.07;;;3.47;;
48975;SDS011;34791;52.752;8.346;2023-02-01T03:54:20;14.10;;;2.20;;
48975;SDS011;34791;52.752;8.346;2023-02-01T03:56:46;14.23;;;2.50;;
48975;SDS011;34791;52.752;8.346;2023-02-01T03:59:13;8.50;;;2.10;;
48975;SDS011;34791;52.752;8.346;2023-02-01T04:01:39;17.37;;;2.73;;
48975;SDS011;34791;52.752;8.346;2023-02-01T04:04:05;17.30;;;2.70;;
48975;SDS011;34791;52.752;8.346;2023-02-01T04:06:31;12.43;;;2.80;;
48975;SDS011;34791;52.752;8.346;2023-02-01T04:08:57;11.67;;;1.97;;
48975;SDS011;34791;52.752;8.346;2023-02-01T04:11:22;13.33;;;2.10;;
48975;SDS011;34791;52.752;8.346;2023-02-01T04:13:47;21.27;;;3.80;;
48975;SDS011;34791;52.752;8.346;2023-02-01T04:16:13;10.10;;;2.50;;
48975;SDS011;34791;52.752;8.346;2023-02-01T04:18:38;17.47;;;2.43;;
48975;SDS011;34791;52.752;8.346;2023-02-01T04:21:03;19.30;;;3.47;;
48975;SDS011;34791;52.752;8.346;2023-02-01T04:23:29;13.70;;;3.27;;
48975;SDS011;34791;52.752;8.346;2023-02-01T04:26:00;19.90;;;3.37;;
48975;SDS011;34791;52.752;8.346;2023-02-01T04:28:26;17.03;;;2.80;;
48975;SDS011;34791;52.752;8.346;2023-02-01T04:30:52;11.10;;;2.57;;
48975;SDS011;34791;52.752;8.346;2023-02-01T04:33:17;9.20;;;2.03;;
48975;SDS011;34791;52.752;8.346;2023-02-01T04:35:42;24.27;;;3.63;;
48975;SDS011;34791;52.752;8.346;2023-02-01T04:38:08;18.47;;;3.70;;
48975;SDS011;34791;52.752;8.346;2023-02-01T04:40:33;11.37;;;2.63;;
48975;SDS011;34791;52.752;8.346;2023-02-01T04:43:00;9.17;;;2.80;;
48975;SDS011;34791;52.752;8.346;2023-02-01T04:45:26;14.03;;;3.10;;
48975;SDS011;34791;52.752;8.346;2023-02-01T04:47:51;16.53;;;3.30;;
48975;SDS011;34791;52.752;8.346;2023-02-01T04:50:18;15.50;;;4.10;;
48975;SDS011;34791;52.752;8.346;2023-02-01T04:52:43;17.10;;;3.23;;
48975;SDS011;34791;52.752;8.346;2023-02-01T04:55:10;17.67;;;3.13;;
48975;SDS011;34791;52.752;8.346;2023-02-01T04:57:38;17.37;;;3.20;;
48975;SDS011;34791;52.752;8.346;2023-02-01T05:00:06;20.57;;;3.53;;
48975;SDS011;34791;52.752;8.346;2023-02-01T05:02:34;11.57;;;2.83;;
48975;SDS011;34791;52.752;8.346;2023-02-01T05:05:00;17.33;;;3.23;;
48975;SDS011;34791;52.752;8.346;2023-02-01T05:07:27;19.93;;;3.80;;
48975;SDS011;34791;52.752;8.346;2023-02-01T05:09:52;17.67;;;3.13;;
48975;SDS011;34791;52.752;8.346;2023-02-01T05:12:18;14.10;;;3.20;;
48975;SDS011;34791;52.752;8.346;2023-02-01T05:15:02;13.70;;;2.93;;
48975;SDS011;34791;52.752;8.346;2023-02-01T05:17:28;12.87;;;2.67;;
48975;SDS011;34791;52.752;8.346;2023-02-01T05:19:54;17.93;;;3.97;;
48975;SDS011;34791;52.752;8.346;2023-02-01T05:22:21;12.17;;;3.10;;
48975;SDS011;34791;52.752;8.346;2023-02-01T05:24:46;14.03;;;2.60;;
48975;SDS011;34791;52.752;8.346;2023-02-01T05:27:11;17.40;;;3.57;;
48975;SDS011;34791;52.752;8.346;2023-02-01T05:29:37;12.63;;;2.53;;
48975;SDS011;34791;52.752;8.346;2023-02-01T05:32:03;11.33;;;3.30;;
48975;SDS011;34791;52.752;8.346;2023-02-01T05:34:28;19.83;;;3.30;;
48975;SDS011;34791;52.752;8.346;2023-02-01T05:36:53;13.77;;;3.10;;
48975;SDS011;34791;52.752;8.346;2023-02-01T05:39:19;14.83;;;3.07;;
48975;SDS011;34791;52.752;8.346;2023-02-01T05:41:44;10.40;;;1.90;;
48975;SDS011;34791;52.752;8.346;2023-02-01T05:44:10;21.00;;;3.37;;
48975;SDS011;34791;52.752;8.346;2023-02-01T05:46:37;14.90;;;3.17;;
48975;SDS011;34791;52.752;8.346;2023-02-01T05:49:03;14.33;;;3.13;;
48975;SDS011;34791;52.752;8.346;2023-02-01T05:51:29;9.83;;;2.33;;
48975;SDS011;34791;52.752;8.346;2023-02-01T05:53:54;15.27;;;3.40;;
48975;SDS011;34791;52.752;8.346;2023-02-01T05:56:20;17.40;;;3.23;;
48975;SDS011;34791;52.752;8.346;2023-02-01T05:58:45;14.83;;;2.70;;
48975;SDS011;34791;52.752;8.346;2023-02-01T06:01:11;12.40;;;3.27;;
48975;SDS011;34791;52.752;8.346;2023-02-01T06:03:37;11.33;;;2.97;;
48975;SDS011;34791;52.752;8.346;2023-02-01T06:06:02;14.87;;;2.60;;
48975;SDS011;34791;52.752;8.346;2023-02-01T06:08:32;13.87;;;2.73;;
48975;SDS011;34791;52.752;8.346;2023-02-01T06:11:05;8.90;;;3.13;;
48975;SDS011;34791;52.752;8.346;2023-02-01T06:13:35;15.70;;;4.13;;
48975;SDS011;34791;52.752;8.346;2023-02-01T06:16:18;16.10;;;2.97;;
48975;SDS011;34791;52.752;8.346;2023-02-01T06:18:56;18.03;;;3.83;;
48975;SDS011;34791;52.752;8.346;2023-02-01T06:21:34;14.33;;;2.93;;
48975;SDS011;34791;52.752;8.346;2023-02-01T06:24:01;14.50;;;2.70;;
48975;SDS011;34791;52.752;8.346;2023-02-01T06:26:36;11.50;;;3.40;;
48975;SDS011;34791;52.752;8.346;2023-02-01T06:29:07;20.73;;;3.83;;
48975;SDS011;34791;52.752;8.346;2023-02-01T06:31:42;18.33;;;3.23;;
48975;SDS011;34791;52.752;8.346;2023-02-01T06:34:10;13.73;;;3.33;;
48975;SDS011;34791;52.752;8.346;2023-02-01T06:36:35;19.83;;;3.43;;
48975;SDS011;34791;52.752;8.346;2023-02-01T06:39:01;16.20;;;2.80;;
48975;SDS011;34791;52.752;8.346;2023-02-01T06:41:26;20.10;;;3.60;;
48975;SDS011;34791;52.752;8.346;2023-02-01T06:43:52;10.17;;;2.57;;
48975;SDS011;34791;52.752;8.346;2023-02-01T06:46:18;13.93;;;2.43;;
48975;SDS011;34791;52.752;8.346;2023-02-01T06:48:43;17.20;;;2.90;;
48975;SDS011;34791;52.752;8.346;2023-02-01T06:51:26;17.17;;;3.23;;
48975;SDS011;34791;52.752;8.346;2023-02-01T06:53:53;27.20;;;3.97;;
48975;SDS011;34791;52.752;8.346;2023-02-01T06:56:18;15.97;;;3.30;;
48975;SDS011;34791;52.752;8.346;2023-02-01T06:58:46;12.80;;;3.17;;
48975;SDS011;34791;52.752;8.346;2023-02-01T07:01:13;12.93;;;3.43;;
48975;SDS011;34791;52.752;8.346;2023-02-01T07:03:40;15.20;;;2.63;;
48975;SDS011;34791;52.752;8.346;2023-02-01T07:06:06;12.93;;;2.67;;
48975;SDS011;34791;52.752;8.346;2023-02-01T07:08:36;17.67;;;3.03;;
48975;SDS011;34791;52.752;8.346;2023-02-01T07:11:12;14.30;;;2.47;;
48975;SDS011;34791;52.752;8.346;2023-02-01T07:13:49;11.10;;;2.17;;
48975;SDS011;34791;52.752;8.346;2023-02-01T07:16:22;12.80;;;2.83;;
48975;SDS011;34791;52.752;8.346;2023-02-01T07:18:49;8.80;;;2.00;;
48975;SDS011;34791;52.752;8.346;2023-02-01T07:21:17;9.47;;;2.40;;
48975;SDS011;34791;52.752;8.346;2023-02-01T07:23:43;12.63;;;2.80;;
48975;SDS011;34791;52.752;8.346;2023-02-01T07:26:11;16.60;;;2.53;;
48975;SDS011;34791;52.752;8.346;2023-02-01T07:28:49;16.10;;;2.40;;
48975;SDS011;34791;52.752;8.346;2023-02-01T07:31:16;14.97;;;2.70;;
48975;SDS011;34791;52.752;8.346;2023-02-01T07:33:54;16.13;;;2.60;;
48975;SDS011;34791;52.752;8.346;2023-02-01T07:36:23;16.03;;;2.70;;
48975;SDS011;34791;52.752;8.346;2023-02-01T07:38:49;12.30;;;2.53;;
48975;SDS011;34791;52.752;8.346;2023-02-01T07:41:17;14.93;;;2.80;;
48975;SDS011;34791;52.752;8.346;2023-02-01T07:43:43;14.40;;;2.60;;
48975;SDS011;34791;52.752;8.346;2023-02-01T07:46:12;19.57;;;2.77;;
48975;SDS011;34791;52.752;8.346;2023-02-01T07:48:40;14.77;;;2.43;;
48975;SDS011;34791;52.752;8.346;2023-02-01T07:51:11;10.17;;;2.37;;
48975;SDS011;34791;52.752;8.346;2023-02-01T07:56:16;14.60;;;3.63;;
48975;SDS011;34791;52.752;8.346;2023-02-01T07:58:48;16.43;;;3.30;;
48975;SDS011;34791;52.752;8.346;2023-02-01T08:01:23;12.80;;;2.50;;
48975;SDS011;34791;52.752;8.346;2023-02-01T08:03:59;13.32;;;2.47;;
48975;SDS011;34791;52.752;8.346;2023-02-01T08:06:30;10.60;;;2.17;;
48975;SDS011;34791;52.752;8.346;2023-02-01T08:11:24;10.37;;;2.00;;
48975;SDS011;34791;52.752;8.346;2023-02-01T08:13:50;11.80;;;2.30;;
48975;SDS011;34791;52.752;8.346;2023-02-01T08:16:17;9.73;;;1.90;;
48975;SDS011;34791;52.752;8.346;2023-02-01T08:18:46;11.77;;;2.17;;
48975;SDS011;34791;52.752;8.346;2023-02-01T08:21:18;17.47;;;2.33;;
48975;SDS011;34791;52.752;8.346;2023-02-01T08:23:47;14.47;;;2.37;;
48975;SDS011;34791;52.752;8.346;2023-02-01T08:26:17;7.27;;;1.83;;
48975;SDS011;34791;52.752;8.346;2023-02-01T08:28:44;6.23;;;1.53;;
48975;SDS011;34791;52.752;8.346;2023-02-01T08:31:12;15.57;;;2.37;;
48975;SDS011;34791;52.752;8.346;2023-02-01T08:33:40;11.37;;;2.63;;
48975;SDS011;34791;52.752;8.346;2023-02-01T08:36:06;15.07;;;2.90;;
48975;SDS011;34791;52.752;8.346;2023-02-01T08:38:34;7.90;;;2.20;;
48975;SDS011;34791;52.752;8.346;2023-02-01T08:41:11;8.80;;;1.90;;
48975;SDS011;34791;52.752;8.346;2023-02-01T08:43:39;11.03;;;2.53;;
48975;SDS011;34791;52.752;8.346;2023-02-01T08:46:05;15.07;;;3.10;;
48975;SDS011;34791;52.752;8.346;2023-02-01T08:48:31;15.33;;;2.47;;
48975;SDS011;34791;52.752;8.346;2023-02-01T08:50:57;8.87;;;2.30;;
48975;SDS011;34791;52.752;8.346;2023-02-01T08:53:25;10.60;;;1.83;;
48975;SDS011;34791;52.752;8.346;2023-02-01T08:55:50;6.83;;;1.73;;
48975;SDS011;34791;52.752;8.346;2023-02-01T08:58:16;15.73;;;2.73;;
48975;SDS011;34791;52.752;8.346;2023-02-01T09:00:42;16.80;;;2.17;;
48975;SDS011;34791;52.752;8.346;2023-02-01T09:03:09;10.90;;;2.37;;
48975;SDS011;34791;52.752;8.346;2023-02-01T09:05:36;16.67;;;2.63;;
48975;SDS011;34791;52.752;8.346;2023-02-01T09:08:01;9.07;;;2.23;;
48975;SDS011;34791;52.752;8.346;2023-02-01T09:10:27;17.20;;;2.67;;
48975;SDS011;34791;52.752;8.346;2023-02-01T09:12:52;8.70;;;2.43;;
48975;SDS011;34791;52.752;8.346;2023-02-01T09:15:18;20.17;;;2.27;;
48975;SDS011;34791;52.752;8.346;2023-02-01T09:17:43;10.83;;;2.50;;
48975;SDS011;34791;52.752;8.346;2023-02-01T09:20:09;13.07;;;2.40;;
48975;SDS011;34791;52.752;8.346;2023-02-01T09:22:35;13.90;;;2.43;;
48975;SDS011;34791;52.752;8.346;2023-02-01T09:25:00;14.40;;;3.27;;
48975;SDS011;34791;52.752;8.346;2023-02-01T09:27:26;15.80;;;2.83;;
48975;SDS011;34791;52.752;8.346;2023-02-01T09:29:51;14.13;;;2.50;;
48975;SDS011;34791;52.752;8.346;2023-02-01T09:32:20;9.63;;;2.20;;
48975;SDS011;34791;52.752;8.346;2023-02-01T09:34:47;11.47;;;2.20;;
48975;SDS011;34791;52.752;8.346;2023-02-01T09:37:13;9.73;;;2.40;;
48975;SDS011;34791;52.752;8.346;2023-02-01T09:39:39;11.47;;;2.30;;
48975;SDS011;34791;52.752;8.346;2023-02-01T09:42:12;9.53;;;1.90;;
48975;SDS011;34791;52.752;8.346;2023-02-01T09:45:14;11.37;;;2.50;;
48975;SDS011;34791;52.752;8.346;2023-02-01T09:48:20;10.13;;;2.10;;
48975;SDS011;34791;52.752;8.346;2023-02-01T09:50:56;20.23;;;2.67;;
48975;SDS011;34791;52.752;8.346;2023-02-01T09:53:33;12.00;;;2.72;;
48975;SDS011;34791;52.752;8.346;2023-02-01T09:56:05;12.10;;;1.90;;
48975;SDS011;34791;52.752;8.346;2023-02-01T09:58:52;10.60;;;2.00;;
48975;SDS011;34791;52.752;8.346;2023-02-01T10:01:21;15.03;;;2.70;;
48975;SDS011;34791;52.752;8.346;2023-02-01T10:03:48;15.33;;;2.87;;
48975;SDS011;34791;52.752;8.346;2023-02-01T10:12:04;12.80;;;2.20;;
48975;SDS011;34791;52.752;8.346;2023-02-01T10:20:09;14.27;;;2.90;;
48975;SDS011;34791;52.752;8.346;2023-02-01T10:25:22;10.60;;;2.20;;
48975;SDS011;34791;52.752;8.346;2023-02-01T10:27:51;8.03;;;1.63;;
48975;SDS011;34791;52.752;8.346;2023-02-01T10:32:47;14.37;;;2.17;;
48975;SDS011;34791;52.752;8.346;2023-02-01T10:35:24;10.53;;;2.43;;
48975;SDS011;34791;52.752;8.346;2023-02-01T10:38:00;11.17;;;2.50;;
48975;SDS011;34791;52.752;8.346;2023-02-01T10:40:29;11.67;;;2.33;;
48975;SDS011;34791;52.752;8.346;2023-02-01T10:42:58;7.13;;;2.13;;
48975;SDS011;34791;52.752;8.346;2023-02-01T10:45:27;16.63;;;2.73;;
48975;SDS011;34791;52.752;8.346;2023-02-01T10:47:57;10.67;;;2.60;;
48975;SDS011;34791;52.752;8.346;2023-02-01T10:55:53;19.80;;;2.83;;
48975;SDS011;34791;52.752;8.346;2023-02-01T10:58:29;12.13;;;2.83;;
48975;SDS011;34791;52.752;8.346;2023-02-01T11:08:49;9.93;;;2.80;;
48975;SDS011;34791;52.752;8.346;2023-02-01T11:11:17;15.17;;;2.63;;
48975;SDS011;34791;52.752;8.346;2023-02-01T11:13:43;24.77;;;3.63;;
48975;SDS011;34791;52.752;8.346;2023-02-01T11:16:13;12.77;;;2.60;;
48975;SDS011;34791;52.752;8.346;2023-02-01T11:18:42;18.83;;;3.23;;
48975;SDS011;34791;52.752;8.346;2023-02-01T11:21:08;9.43;;;2.63;;
48975;SDS011;34791;52.752;8.346;2023-02-01T11:23:40;10.87;;;2.13;;
48975;SDS011;34791;52.752;8.346;2023-02-01T11:28:35;12.77;;;2.53;;
48975;SDS011;34791;52.752;8.346;2023-02-01T11:31:07;10.77;;;2.40;;
48975;SDS011;34791;52.752;8.346;2023-02-01T11:33:36;10.67;;;2.10;;
48975;SDS011;34791;52.752;8.346;2023-02-01T11:36:17;10.03;;;2.73;;
48975;SDS011;34791;52.752;8.346;2023-02-01T11:38:47;13.40;;;2.40;;
48975;SDS011;34791;52.752;8.346;2023-02-01T11:41:23;7.47;;;2.60;;
48975;SDS011;34791;52.752;8.346;2023-02-01T11:46:23;7.43;;;1.77;;
48975;SDS011;34791;52.752;8.346;2023-02-01T11:48:53;8.90;;;2.53;;
48975;SDS011;34791;52.752;8.346;2023-02-01T11:51:54;9.40;;;2.00;;
48975;SDS011;34791;52.752;8.346;2023-02-01T11:57:16;11.77;;;1.70;;
48975;SDS011;34791;52.752;8.346;2023-02-01T12:00:04;8.33;;;2.17;;
48975;SDS011;34791;52.752;8.346;2023-02-01T12:08:13;11.80;;;2.07;;
48975;SDS011;34791;52.752;8.346;2023-02-01T12:10:54;13.13;;;2.90;;
48975;SDS011;34791;52.752;8.346;2023-02-01T12:16:51;6.53;;;2.13;;
48975;SDS011;34791;52.752;8.346;2023-02-01T12:27:31;8.60;;;3.13;;
48975;SDS011;34791;52.752;8.346;2023-02-01T12:38:14;6.60;;;1.70;;
48975;SDS011;34791;52.752;8.346;2023-02-01T12:43:57;0.77;;;0.50;;
48975;SDS011;34791;52.752;8.346;2023-02-01T12:46:41;1.67;;;0.57;;
48975;SDS011;34791;52.752;8.346;2023-02-01T12:52:01;3.58;;;0.63;;
48975;SDS011;34791;52.752;8.346;2023-02-01T12:57:09;1.97;;;0.60;;
48975;SDS011;34791;52.752;8.346;2023-02-01T12:59:42;0.50;;;0.50;;
48975;SDS011;34791;52.752;8.346;2023-02-01T13:05:07;1.87;;;0.60;;
48975;SDS011;34791;52.752;8.346;2023-02-01T13:07:45;2.63;;;0.70;;
48975;SDS011;34791;52.752;8.346;2023-02-01T13:13:14;2.43;;;0.60;;
48975;SDS011;34791;52.752;8.346;2023-02-01T13:15:46;4.90;;;0.73;;
48975;SDS011;34791;52.752;8.346;2023-02-01T13:18:18;4.13;;;0.60;;
48975;SDS011;34791;52.752;8.346;2023-02-01T13:20:56;3.83;;;0.77;;
48975;SDS011;34791;52.752;8.346;2023-02-01T13:23:28;1.90;;;0.67;;
48975;SDS011;34791;52.752;8.346;2023-02-01T13:25:56;5.03;;;1.13;;
48975;SDS011;34791;52.752;8.346;2023-02-01T13:28:29;4.63;;;0.53;;
48975;SDS011;34791;52.752;8.346;2023-02-01T13:31:20;4.13;;;1.50;;
48975;SDS011;34791;52.752;8.346;2023-02-01T13:39:34;2.08;;;0.60;;
48975;SDS011;34791;52.752;8.346;2023-02-01T13:42:16;5.27;;;0.93;;
48975;SDS011;34791;52.752;8.346;2023-02-01T13:44:46;3.47;;;0.90;;
48975;SDS011;34791;52.752;8.346;2023-02-01T13:49:47;2.70;;;0.77;;
48975;SDS011;34791;52.752;8.346;2023-02-01T13:52:21;5.37;;;0.90;;
48975;SDS011;34791;52.752;8.346;2023-02-01T13:54:49;7.53;;;1.17;;
48975;SDS011;34791;52.752;8.346;2023-02-01T13:57:37;9.17;;;1.33;;
48975;SDS011;34791;52.752;8.346;2023-02-01T14:00:05;2.90;;;1.33;;
48975;SDS011;34791;52.752;8.346;2023-02-01T14:02:45;7.03;;;1.10;;
48975;SDS011;34791;52.752;8.346;2023-02-01T14:13:31;7.43;;;1.27;;
48975;SDS011;34791;52.752;8.346;2023-02-01T14:23:47;8.77;;;1.30;;
48975;SDS011;34791;52.752;8.346;2023-02-01T14:34:13;8.47;;;1.67;;
48975;SDS011;34791;52.752;8.346;2023-02-01T14:36:50;10.17;;;1.60;;
48975;SDS011;34791;52.752;8.346;2023-02-01T14:39:21;10.43;;;1.77;;
48975;SDS011;34791;52.752;8.346;2023-02-01T14:41:55;10.43;;;1.90;;
48975;SDS011;34791;52.752;8.346;2023-02-01T14:44:26;13.67;;;2.10;;
48975;SDS011;34791;52.752;8.346;2023-02-01T14:49:54;14.30;;;2.77;;
48975;SDS011;34791;52.752;8.346;2023-02-01T14:52:45;10.60;;;2.20;;
48975;SDS011;34791;52.752;8.346;2023-02-01T14:58:32;9.23;;;2.60;;
48975;SDS011;34791;52.752;8.346;2023-02-01T15:08:57;11.30;;;2.20;;
48975;SDS011;34791;52.752;8.346;2023-02-01T15:11:29;8.30;;;1.87;;
48975;SDS011;34791;52.752;8.346;2023-02-01T15:13:55;14.70;;;3.07;;
48975;SDS011;34791;52.752;8.346;2023-02-01T15:16:23;11.80;;;2.07;;
48975;SDS011;34791;52.752;8.346;2023-02-01T15:18:49;11.27;;;2.30;;
48975;SDS011;34791;52.752;8.346;2023-02-01T15:21:16;13.90;;;2.73;;
48975;SDS011;34791;52.752;8.346;2023-02-01T15:23:46;15.50;;;2.78;;
48975;SDS011;34791;52.752;8.346;2023-02-01T15:26:31;22.10;;;2.80;;
48975;SDS011;34791;52.752;8.346;2023-02-01T15:28:57;22.87;;;3.37;;
48975;SDS011;34791;52.752;8.346;2023-02-01T15:31:45;13.33;;;1.90;;
48975;SDS011;34791;52.752;8.346;2023-02-01T15:34:11;12.97;;;2.70;;
48975;SDS011;34791;52.752;8.346;2023-02-01T15:36:37;22.43;;;3.47;;
48975;SDS011;34791;52.752;8.346;2023-02-01T15:41:47;25.40;;;4.33;;
48975;SDS011;34791;52.752;8.346;2023-02-01T15:44:19;14.27;;;2.40;;
48975;SDS011;34791;52.752;8.346;2023-02-01T15:46:58;16.43;;;2.70;;
48975;SDS011;34791;52.752;8.346;2023-02-01T15:49:31;21.13;;;3.33;;
48975;SDS011;34791;52.752;8.346;2023-02-01T15:52:01;11.25;;;2.30;;
48975;SDS011;34791;52.752;8.346;2023-02-01T15:54:31;15.73;;;3.27;;
48975;SDS011;34791;52.752;8.346;2023-02-01T15:57:07;10.80;;;1.93;;
48975;SDS011;34791;52.752;8.346;2023-02-01T15:59:39;18.23;;;3.03;;
48975;SDS011;34791;52.752;8.346;2023-02-01T16:05:03;13.77;;;2.37;;
48975;SDS011;34791;52.752;8.346;2023-02-01T16:07:31;12.80;;;2.20;;
48975;SDS011;34791;52.752;8.346;2023-02-01T16:09:59;19.23;;;2.63;;
48975;SDS011;34791;52.752;8.346;2023-02-01T16:12:45;10.40;;;2.50;;
48975;SDS011;34791;52.752;8.346;2023-02-01T16:15:11;19.70;;;3.30;;
48975;SDS011;34791;52.752;8.346;2023-02-01T16:17:37;15.63;;;2.50;;
48975;SDS011;34791;52.752;8.346;2023-02-01T16:20:04;16.43;;;2.60;;
48975;SDS011;34791;52.752;8.346;2023-02-01T16:22:29;13.80;;;3.23;;
48975;SDS011;34791;52.752;8.346;2023-02-01T16:24:55;23.23;;;4.23;;
48975;SDS011;34791;52.752;8.346;2023-02-01T16:27:21;15.50;;;2.60;;
48975;SDS011;34791;52.752;8.346;2023-02-01T16:29:47;23.87;;;3.30;;
48975;SDS011;34791;52.752;8.346;2023-02-01T16:32:17;20.07;;;2.50;;
48975;SDS011;34791;52.752;8.346;2023-02-01T16:34:46;15.23;;;3.17;;
48975;SDS011;34791;52.752;8.346;2023-02-01T16:37:13;21.00;;;3.33;;
48975;SDS011;34791;52.752;8.346;2023-02-01T16:39:41;16.30;;;2.83;;
48975;SDS011;34791;52.752;8.346;2023-02-01T16:42:13;20.30;;;3.57;;
48975;SDS011;34791;52.752;8.346;2023-02-01T16:44:40;15.80;;;2.53;;
48975;SDS011;34791;52.752;8.346;2023-02-01T16:47:16;16.87;;;2.60;;
48975;SDS011;34791;52.752;8.346;2023-02-01T16:49:46;13.60;;;2.70;;
48975;SDS011;34791;52.752;8.346;2023-02-01T16:52:14;11.30;;;2.20;;
48975;SDS011;34791;52.752;8.346;2023-02-01T16:54:43;19.37;;;2.47;;
48975;SDS011;34791;52.752;8.346;2023-02-01T16:57:13;21.20;;;3.03;;
48975;SDS011;34791;52.752;8.346;2023-02-01T17:02:13;15.13;;;2.03;;
48975;SDS011;34791;52.752;8.346;2023-02-01T17:04:40;13.10;;;2.15;;
48975;SDS011;34791;52.752;8.346;2023-02-01T17:07:06;15.80;;;2.20;;
48975;SDS011;34791;52.752;8.346;2023-02-01T17:09:36;9.33;;;1.80;;
48975;SDS011;34791;52.752;8.346;2023-02-01T17:12:03;18.13;;;2.47;;
48975;SDS011;34791;52.752;8.346;2023-02-01T17:14:31;16.27;;;2.07;;
48975;SDS011;34791;52.752;8.346;2023-02-01T17:17:00;6.50;;;1.53;;
48975;SDS011;34791;52.752;8.346;2023-02-01T17:19:26;18.73;;;2.50;;
48975;SDS011;34791;52.752;8.346;2023-02-01T17:21:53;14.47;;;2.13;;
48975;SDS011;34791;52.752;8.346;2023-02-01T17:24:28;14.87;;;2.60;;
48975;SDS011;34791;52.752;8.346;2023-02-01T17:27:01;11.90;;;2.15;;
48975;SDS011;34791;52.752;8.346;2023-02-01T17:29:28;8.47;;;1.63;;
48975;SDS011;34791;52.752;8.346;2023-02-01T17:31:58;18.20;;;3.13;;
48975;SDS011;34791;52.752;8.346;2023-02-01T17:34:25;17.07;;;2.63;;
48975;SDS011;34791;52.752;8.346;2023-02-01T17:36:56;11.80;;;2.17;;
48975;SDS011;34791;52.752;8.346;2023-02-01T17:39:30;9.17;;;1.57;;
48975;SDS011;34791;52.752;8.346;2023-02-01T17:42:31;14.77;;;2.63;;
48975;SDS011;34791;52.752;8.346;2023-02-01T17:45:10;13.03;;;2.30;;
48975;SDS011;34791;52.752;8.346;2023-02-01T17:47:46;10.83;;;1.67;;
48975;SDS011;34791;52.752;8.346;2023-02-01T17:50:23;17.23;;;2.67;;
48975;SDS011;34791;52.752;8.346;2023-02-01T17:52:55;8.67;;;1.47;;